Time,TemperatureF,DewpointF,PressureIn,WindDirection,WindDirectionDegrees,WindSpeedMPH,WindSpeedGustMPH,Humidity,HourlyPrecipIn,Conditions,Clouds,dailyrainin,SoftwareType,DateUTC
2013-02-09 00:02:00,31.0,25.0,-100.00,WSW,239,1.0,3.0,78,0.00,,,0.23,,2013-02-09 05:02:00,
2013-02-09 00:12:00,31.0,25.0,-100.00,WSW,239,1.0,3.0,78,0.00,,,0.23,,2013-02-09 05:12:00,
2013-02-09 00:22:00,31.0,25.0,-100.00,SW,222,1.0,3.0,80,0.00,,,0.23,,2013-02-09 05:22:00,
2013-02-09 00:32:00,31.0,25.0,-100.00,SW,222,1.0,3.0,80,0.00,,,0.23,,2013-02-09 05:32:00,
2013-02-09 00:42:00,31.0,26.0,-100.00,SSW,192,1.0,2.0,81,0.00,,,0.23,,2013-02-09 05:42:00,
2013-02-09 00:52:00,31.0,26.0,-100.00,SSW,192,1.0,2.0,81,0.00,,,0.23,,2013-02-09 05:52:00,
2013-02-09 01:02:00,30.0,25.0,-100.00,East,90,2.0,4.0,80,0.00,,,0.23,,2013-02-09 06:02:00,
2013-02-09 01:11:00,30.0,25.0,-100.00,East,90,2.0,4.0,80,0.00,,,0.23,,2013-02-09 06:11:00,
2013-02-09 01:21:00,30.0,25.0,-100.00,ESE,112,2.0,4.0,79,0.00,,,0.23,,2013-02-09 06:21:00,
2013-02-09 01:32:00,30.0,25.0,-100.00,ESE,112,2.0,4.0,79,0.00,,,0.23,,2013-02-09 06:32:00,
2013-02-09 01:42:00,30.0,24.0,-100.00,ESE,104,5.0,8.0,77,0.00,,,0.23,,2013-02-09 06:42:00,
2013-02-09 01:52:00,30.0,24.0,-100.00,ESE,104,5.0,8.0,77,0.00,,,0.23,,2013-02-09 06:52:00,
2013-02-09 02:01:00,30.0,24.0,-100.00,WSW,254,1.0,1.0,77,0.00,,,0.23,,2013-02-09 07:01:00,
2013-02-09 02:11:00,30.0,24.0,-100.00,WSW,254,1.0,1.0,77,0.00,,,0.23,,2013-02-09 07:11:00,
2013-02-09 02:21:00,30.0,23.0,-100.00,East,96,4.0,7.0,75,0.00,,,0.23,,2013-02-09 07:21:00,
2013-02-09 02:32:00,30.0,23.0,-100.00,East,96,4.0,7.0,75,0.00,,,0.23,,2013-02-09 07:32:00,
2013-02-09 02:42:00,30.0,22.0,-100.00,East,100,6.0,11.0,74,0.00,,,0.23,,2013-02-09 07:42:00,
2013-02-09 02:52:00,30.0,22.0,-100.00,East,100,6.0,11.0,74,0.00,,,0.23,,2013-02-09 07:52:00,
2013-02-09 03:01:00,30.0,23.0,-100.00,ESE,116,2.0,4.0,76,0.00,,,0.23,,2013-02-09 08:01:00,
2013-02-09 03:11:00,30.0,23.0,-100.00,ESE,116,2.0,4.0,76,0.00,,,0.23,,2013-02-09 08:11:00,
2013-02-09 03:21:00,30.0,24.0,-100.00,ESE,104,2.0,4.0,78,0.00,,,0.23,,2013-02-09 08:21:00,
2013-02-09 03:32:00,30.0,24.0,-100.00,ESE,104,2.0,4.0,78,0.00,,,0.23,,2013-02-09 08:32:00,
2013-02-09 03:42:00,30.0,24.0,-100.00,SE,131,1.0,2.0,80,0.00,,,0.21,,2013-02-09 08:42:00,
2013-02-09 03:52:00,30.0,24.0,-100.00,SE,131,1.0,2.0,80,0.00,,,0.21,,2013-02-09 08:52:00,
2013-02-09 04:03:00,29.0,23.0,-100.00,SE,131,2.0,5.0,79,0.00,,,0.18,,2013-02-09 09:03:00,
2013-02-09 04:11:00,29.0,23.0,-100.00,SE,131,2.0,5.0,79,0.00,,,0.18,,2013-02-09 09:11:00,
2013-02-09 04:22:00,29.0,23.0,-100.00,ESE,113,3.0,5.0,79,0.00,,,0.17,,2013-02-09 09:22:00,
2013-02-09 04:32:00,29.0,23.0,-100.00,ESE,113,3.0,5.0,79,0.00,,,0.17,,2013-02-09 09:32:00,
2013-02-09 04:42:00,29.0,23.0,-100.00,ESE,120,2.0,4.0,78,0.00,,,0.17,,2013-02-09 09:42:00,
2013-02-09 04:52:00,29.0,23.0,-100.00,ESE,120,2.0,4.0,78,0.00,,,0.17,,2013-02-09 09:52:00,
2013-02-09 05:01:00,28.0,21.0,-100.00,East,97,4.0,6.0,76,0.00,,,0.17,,2013-02-09 10:01:00,
2013-02-09 05:11:00,28.0,21.0,-100.00,East,97,4.0,6.0,76,0.00,,,0.17,,2013-02-09 10:11:00,
2013-02-09 05:21:00,28.0,22.0,-100.00,East,92,6.0,8.0,78,0.00,,,0.17,,2013-02-09 10:21:00,
2013-02-09 05:32:00,28.0,22.0,-100.00,East,92,6.0,8.0,78,0.00,,,0.17,,2013-02-09 10:32:00,
2013-02-09 05:42:00,28.0,22.0,-100.00,East,89,6.0,10.0,78,0.00,,,0.17,,2013-02-09 10:42:00,
2013-02-09 05:52:00,28.0,22.0,-100.00,East,89,4.0,7.0,78,0.00,,,0.17,,2013-02-09 10:52:00,
2013-02-09 06:02:00,28.0,22.0,-100.00,East,89,4.0,7.0,78,0.00,,,0.17,,2013-02-09 11:02:00,
2013-02-09 06:11:00,28.0,22.0,-100.00,East,89,4.0,7.0,78,0.00,,,0.17,,2013-02-09 11:11:00,
2013-02-09 06:22:00,28.0,22.0,-100.00,East,95,5.0,8.0,79,0.00,,,0.17,,2013-02-09 11:22:00,
2013-02-09 06:32:00,28.0,22.0,-100.00,East,95,5.0,8.0,79,0.00,,,0.17,,2013-02-09 11:32:00,
2013-02-09 06:42:00,27.0,22.0,-100.00,East,85,5.0,8.0,78,0.00,,,0.17,,2013-02-09 11:42:00,
2013-02-09 06:52:00,27.0,22.0,-100.00,East,85,5.0,8.0,78,0.00,,,0.17,,2013-02-09 11:52:00,
2013-02-09 07:02:00,27.0,22.0,-100.00,East,95,3.0,4.0,78,0.00,,,0.17,,2013-02-09 12:02:00,
2013-02-09 07:11:00,27.0,22.0,-100.00,East,95,3.0,4.0,78,0.00,,,0.17,,2013-02-09 12:11:00,
2013-02-09 07:22:00,27.0,21.0,-100.00,East,96,5.0,10.0,79,0.00,,,0.17,,2013-02-09 12:22:00,
2013-02-09 07:32:00,27.0,21.0,-100.00,East,96,5.0,10.0,79,0.00,,,0.17,,2013-02-09 12:32:00,
2013-02-09 07:42:00,27.0,21.0,-100.00,East,83,5.0,8.0,79,0.00,,,0.17,,2013-02-09 12:42:00,
2013-02-09 07:53:00,27.0,21.0,-100.00,East,83,5.0,8.0,79,0.00,,,0.17,,2013-02-09 12:53:00,
2013-02-09 08:02:00,26.0,21.0,-100.00,East,88,3.0,5.0,81,0.00,,,0.17,,2013-02-09 13:02:00,
2013-02-09 08:11:00,26.0,21.0,-100.00,East,88,3.0,5.0,81,0.00,,,0.17,,2013-02-09 13:11:00,
2013-02-09 08:22:00,26.0,21.0,-100.00,ENE,76,2.0,3.0,81,0.00,,,0.14,,2013-02-09 13:22:00,
2013-02-09 08:32:00,26.0,21.0,-100.00,ENE,76,2.0,3.0,81,0.00,,,0.14,,2013-02-09 13:32:00,
2013-02-09 08:42:00,26.0,21.0,-100.00,ESE,109,4.0,5.0,83,0.00,,,0.11,,2013-02-09 13:42:00,
2013-02-09 08:52:00,26.0,21.0,-100.00,ESE,109,4.0,5.0,83,0.00,,,0.11,,2013-02-09 13:52:00,
2013-02-09 09:01:00,27.0,21.0,-100.00,East,96,4.0,7.0,77,0.00,,,0.11,,2013-02-09 14:01:00,
2013-02-09 09:11:00,27.0,21.0,-100.00,East,96,4.0,7.0,77,0.00,,,0.11,,2013-02-09 14:11:00,
2013-02-09 09:22:00,28.0,22.0,-100.00,East,80,4.0,7.0,75,0.00,,,0.09,,2013-02-09 14:22:00,
2013-02-09 09:32:00,28.0,22.0,-100.00,East,80,4.0,7.0,75,0.00,,,0.09,,2013-02-09 14:32:00,
2013-02-09 09:42:00,29.0,21.0,-100.00,ENE,72,7.0,9.0,73,0.00,,,0.07,,2013-02-09 14:42:00,
2013-02-09 09:52:00,29.0,21.0,-100.00,ENE,72,7.0,9.0,73,0.00,,,0.07,,2013-02-09 14:52:00,
2013-02-09 10:02:00,31.0,22.0,-100.00,SE,133,3.0,5.0,71,0.00,,,0.05,,2013-02-09 15:02:00,
2013-02-09 10:11:00,31.0,22.0,-100.00,SE,133,3.0,5.0,71,0.00,,,0.05,,2013-02-09 15:11:00,
2013-02-09 10:22:00,30.0,22.0,-100.00,East,85,6.0,9.0,71,0.00,,,0.04,,2013-02-09 15:22:00,
2013-02-09 10:32:00,30.0,22.0,-100.00,East,85,6.0,9.0,71,0.00,,,0.04,,2013-02-09 15:32:00,
2013-02-09 10:42:00,31.0,22.0,-100.00,East,89,5.0,8.0,69,0.00,,,0.04,,2013-02-09 15:42:00,
2013-02-09 10:52:00,31.0,22.0,-100.00,East,89,5.0,8.0,69,0.00,,,0.04,,2013-02-09 15:52:00,
2013-02-09 11:01:00,34.0,22.0,-100.00,East,85,4.0,7.0,62,0.00,,,0.03,,2013-02-09 16:01:00,
2013-02-09 11:11:00,34.0,22.0,-100.00,East,85,4.0,7.0,62,0.00,,,0.03,,2013-02-09 16:11:00,
2013-02-09 11:22:00,33.0,20.0,-100.00,ENE,59,5.0,9.0,58,0.00,,,0.00,,2013-02-09 16:22:00,
2013-02-09 11:32:00,33.0,20.0,-100.00,ENE,59,5.0,9.0,58,0.00,,,0.00,,2013-02-09 16:32:00,
2013-02-09 11:42:00,37.0,17.0,-100.00,East,86,3.0,5.0,44,0.00,,,0.00,,2013-02-09 16:42:00,
2013-02-09 11:52:00,37.0,17.0,-100.00,East,86,3.0,5.0,44,0.00,,,0.00,,2013-02-09 16:52:00,
2013-02-09 12:01:00,36.0,14.0,-100.00,East,96,6.0,13.0,39,0.00,,,0.00,,2013-02-09 17:01:00,
2013-02-09 12:11:00,36.0,14.0,-100.00,East,96,6.0,13.0,39,0.00,,,0.00,,2013-02-09 17:11:00,
2013-02-09 12:22:00,37.0,11.0,-100.00,East,83,9.0,14.0,33,0.00,,,0.00,,2013-02-09 17:22:00,
2013-02-09 12:42:00,39.0,12.0,-100.00,East,95,7.0,11.0,33,0.00,,,0.00,,2013-02-09 17:42:00,
2013-02-09 12:52:00,39.0,12.0,-100.00,East,95,7.0,11.0,33,0.00,,,0.00,,2013-02-09 17:52:00,
2013-02-09 13:02:00,40.0,11.0,-100.00,ENE,71,7.0,11.0,29,0.00,,,0.00,,2013-02-09 18:02:00,
2013-02-09 13:23:00,43.0,15.0,-100.00,North,357,4.0,6.0,32,0.00,,,0.00,,2013-02-09 18:23:00,
2013-02-09 13:32:00,43.0,15.0,-100.00,North,357,4.0,6.0,32,0.00,,,0.00,,2013-02-09 18:32:00,
2013-02-09 13:42:00,43.0,14.0,-100.00,East,92,3.0,7.0,30,0.00,,,0.00,,2013-02-09 18:42:00,
2013-02-09 13:52:00,43.0,14.0,-100.00,East,92,3.0,7.0,30,0.00,,,0.00,,2013-02-09 18:52:00,
2013-02-09 14:02:00,46.0,12.0,-100.00,East,85,5.0,8.0,25,0.00,,,0.00,,2013-02-09 19:02:00,
2013-02-09 14:11:00,46.0,12.0,-100.00,East,85,5.0,8.0,25,0.00,,,0.00,,2013-02-09 19:11:00,
2013-02-09 14:22:00,47.0,13.0,-100.00,SE,133,2.0,4.0,24,0.00,,,0.00,,2013-02-09 19:22:00,
2013-02-09 14:32:00,47.0,13.0,-100.00,SE,133,2.0,4.0,24,0.00,,,0.00,,2013-02-09 19:32:00,
2013-02-09 14:42:00,45.0,9.0,-100.00,North,8,2.0,4.0,22,0.00,,,0.00,,2013-02-09 19:42:00,
2013-02-09 14:52:00,45.0,9.0,-100.00,North,8,2.0,4.0,22,0.00,,,0.00,,2013-02-09 19:52:00,
2013-02-09 15:02:00,49.0,12.0,-100.00,ESE,117,2.0,4.0,22,0.00,,,0.00,,2013-02-09 20:02:00,
2013-02-09 15:11:00,49.0,12.0,-100.00,ESE,117,2.0,4.0,22,0.00,,,0.00,,2013-02-09 20:11:00,
2013-02-09 15:22:00,48.0,8.0,-100.00,SE,145,4.0,6.0,19,0.00,,,0.00,,2013-02-09 20:22:00,
2013-02-09 15:42:00,48.0,10.0,-100.00,East,90,4.0,8.0,21,0.00,,,0.00,,2013-02-09 20:42:00,
2013-02-09 15:52:00,48.0,10.0,-100.00,East,90,4.0,8.0,21,0.00,,,0.00,,2013-02-09 20:52:00,
2013-02-09 16:02:00,48.0,13.0,-100.00,ESE,112,4.0,6.0,23,0.00,,,0.00,,2013-02-09 21:02:00,
2013-02-09 16:12:00,48.0,13.0,-100.00,ESE,112,4.0,6.0,23,0.00,,,0.00,,2013-02-09 21:12:00,
2013-02-09 16:22:00,48.0,7.0,-100.00,East,79,6.0,9.0,19,0.00,,,0.00,,2013-02-09 21:22:00,
2013-02-09 16:42:00,48.0,7.0,-100.00,East,79,4.0,6.0,18,0.00,,,0.00,,2013-02-09 21:42:00,
2013-02-09 16:52:00,48.0,7.0,-100.00,East,79,4.0,6.0,18,0.00,,,0.00,,2013-02-09 21:52:00,
2013-02-09 17:01:00,48.0,8.0,-100.00,ENE,75,4.0,8.0,19,0.00,,,0.00,,2013-02-09 22:01:00,
2013-02-09 17:42:00,48.0,9.0,-100.00,ENE,73,2.0,4.0,20,0.00,,,0.00,,2013-02-09 22:42:00,
2013-02-09 17:52:00,48.0,9.0,-100.00,ENE,73,2.0,4.0,20,0.00,,,0.00,,2013-02-09 22:52:00,
2013-02-09 18:02:00,47.0,9.0,-100.00,NNE,30,3.0,4.0,21,0.00,,,0.00,,2013-02-09 23:02:00,
2013-02-09 18:11:00,47.0,9.0,-100.00,NNE,30,3.0,4.0,21,0.00,,,0.00,,2013-02-09 23:11:00,
2013-02-09 18:22:00,45.0,11.0,-100.00,NNE,32,3.0,4.0,24,0.00,,,0.00,,2013-02-09 23:22:00,
2013-02-09 18:32:00,45.0,11.0,-100.00,NNE,32,3.0,4.0,24,0.00,,,0.00,,2013-02-09 23:32:00,
2013-02-09 18:42:00,45.0,9.0,-100.00,North,6,3.0,4.0,23,0.00,,,0.00,,2013-02-09 23:42:00,
2013-02-09 18:52:00,45.0,9.0,-100.00,North,6,3.0,4.0,23,0.00,,,0.00,,2013-02-09 23:52:00,
2013-02-09 19:02:00,44.0,11.0,-100.00,NNE,14,4.0,5.0,26,0.00,,,0.00,,2013-02-10 00:02:00,
2013-02-09 19:22:00,43.0,11.0,-100.00,NNE,32,4.0,5.0,26,0.00,,,0.00,,2013-02-10 00:22:00,
2013-02-09 19:42:00,42.0,14.0,-100.00,NE,37,3.0,4.0,32,0.00,,,0.00,,2013-02-10 00:42:00,
2013-02-09 19:52:00,42.0,14.0,-100.00,NE,37,3.0,4.0,32,0.00,,,0.00,,2013-02-10 00:52:00,
2013-02-09 20:01:00,42.0,15.0,-100.00,NNE,23,4.0,4.0,33,0.00,,,0.00,,2013-02-10 01:01:00,
2013-02-09 20:12:00,42.0,15.0,-100.00,NNE,23,4.0,4.0,33,0.00,,,0.00,,2013-02-10 01:12:00,
2013-02-09 20:22:00,42.0,15.0,-100.00,NNW,347,2.0,3.0,33,0.00,,,0.00,,2013-02-10 01:22:00,
2013-02-09 20:42:00,42.0,17.0,-100.00,NNW,328,2.0,2.0,36,0.00,,,0.00,,2013-02-10 01:42:00,
2013-02-09 20:52:00,42.0,17.0,-100.00,NNW,328,2.0,2.0,36,0.00,,,0.00,,2013-02-10 01:52:00,
2013-02-09 21:01:00,41.0,17.0,-100.00,West,278,0.0,0.0,37,0.00,,,0.00,,2013-02-10 02:01:00,
2013-02-09 21:22:00,41.0,15.0,-100.00,NNW,346,2.0,3.0,34,0.00,,,0.00,,2013-02-10 02:22:00,
2013-02-09 21:42:00,40.0,16.0,-100.00,NW,306,3.0,3.0,38,0.00,,,0.00,,2013-02-10 02:42:00,
2013-02-09 21:52:00,40.0,16.0,-100.00,NW,306,3.0,3.0,38,0.00,,,0.00,,2013-02-10 02:52:00,
2013-02-09 22:02:00,40.0,16.0,-100.00,SW,236,1.0,3.0,37,0.00,,,0.00,,2013-02-10 03:02:00,
2013-02-09 22:22:00,39.0,15.0,-100.00,WNW,295,0.0,1.0,36,0.00,,,0.00,,2013-02-10 03:22:00,
2013-02-09 22:42:00,39.0,15.0,-100.00,WNW,295,0.0,2.0,37,0.00,,,0.00,,2013-02-10 03:42:00,
2013-02-09 22:52:00,39.0,15.0,-100.00,WNW,295,0.0,2.0,37,0.00,,,0.00,,2013-02-10 03:52:00,
2013-02-09 23:02:00,39.0,15.0,-100.00,West,264,0.0,1.0,38,0.00,,,0.00,,2013-02-10 04:02:00,
2013-02-09 23:22:00,39.0,17.0,-100.00,NW,323,2.0,3.0,40,0.00,,,0.00,,2013-02-10 04:22:00,
2013-02-09 23:42:00,38.0,15.0,-100.00,WNW,299,0.0,1.0,38,0.00,,,0.00,,2013-02-10 04:42:00,
2013-02-09 23:52:00,38.0,15.0,-100.00,WNW,299,0.0,1.0,38,0.00,,,0.00,,2013-02-10 04:52:00,